createdAt,value
2023-02-24T00:00:32.484Z,13.33
2023-02-24T00:03:06.034Z,13.67
2023-02-24T00:05:36.026Z,12.87
2023-02-24T00:08:04.091Z,11.73
2023-02-24T00:10:32.873Z,10.20
2023-02-24T00:13:02.296Z,10.03
2023-02-24T00:15:31.104Z,10.63
2023-02-24T00:17:59.448Z,10.50
2023-02-24T00:20:27.671Z,11.43
2023-02-24T00:22:55.911Z,11.57
2023-02-24T00:25:24.317Z,11.80
2023-02-24T00:27:55.711Z,11.57
2023-02-24T00:30:25.368Z,11.20
2023-02-24T00:32:53.598Z,12.20
2023-02-24T00:35:21.660Z,11.70
2023-02-24T00:37:51.347Z,12.20
2023-02-24T00:40:23.423Z,11.83
2023-02-24T00:42:54.332Z,12.80
2023-02-24T00:45:22.349Z,11.23
2023-02-24T00:47:51.823Z,11.20
2023-02-24T00:50:20.193Z,12.03
2023-02-24T00:52:50.077Z,11.73
2023-02-24T00:55:19.373Z,10.03
2023-02-24T00:57:47.443Z,10.23
2023-02-24T01:00:16.735Z,10.73
2023-02-24T01:02:46.103Z,10.57
2023-02-24T01:05:16.154Z,10.73
2023-02-24T01:07:44.253Z,10.87
2023-02-24T01:10:15.300Z,12.00
2023-02-24T01:12:51.080Z,11.13
2023-02-24T01:15:22.496Z,15.93
2023-02-24T01:17:51.123Z,13.90
2023-02-24T01:20:23.442Z,13.53
2023-02-24T01:22:53.976Z,12.53
2023-02-24T01:25:22.467Z,10.73
2023-02-24T01:27:50.724Z,10.73
2023-02-24T01:30:19.231Z,9.90
2023-02-24T01:32:48.447Z,9.03
2023-02-24T01:35:17.758Z,8.77
2023-02-24T01:37:47.346Z,8.50
2023-02-24T01:40:21.633Z,7.60
2023-02-24T01:42:50.741Z,7.03
2023-02-24T01:45:23.002Z,7.30
2023-02-24T01:47:52.676Z,7.83
2023-02-24T01:50:23.513Z,8.40
2023-02-24T01:52:56.670Z,9.93
2023-02-24T01:55:29.258Z,9.50
2023-02-24T01:57:58.891Z,8.60
2023-02-24T02:00:45.023Z,8.47
2023-02-24T02:03:24.338Z,8.37
2023-02-24T02:06:01.248Z,7.43
2023-02-24T02:08:31.452Z,8.63
2023-02-24T02:11:06.388Z,7.87
2023-02-24T02:13:36.553Z,9.17
2023-02-24T02:16:25.921Z,10.67
2023-02-24T02:19:05.528Z,10.33
2023-02-24T02:22:06.934Z,11.43
2023-02-24T02:24:53.962Z,10.33
2023-02-24T02:28:07.533Z,11.13
2023-02-24T02:31:17.189Z,10.33
2023-02-24T02:34:08.833Z,9.90
2023-02-24T02:36:50.419Z,11.97
2023-02-24T02:39:28.703Z,11.67
2023-02-24T02:42:06.943Z,11.57
2023-02-24T02:44:40.651Z,11.30
2023-02-24T02:47:14.274Z,13.97
2023-02-24T02:49:49.005Z,12.77
2023-02-24T02:52:22.661Z,11.73
2023-02-24T02:54:56.320Z,12.03
2023-02-24T02:57:27.309Z,11.43
2023-02-24T02:59:59.799Z,10.93
2023-02-24T03:02:31.456Z,9.93
2023-02-24T03:05:04.799Z,9.87
2023-02-24T03:07:40.468Z,9.90
2023-02-24T03:10:17.701Z,10.00
2023-02-24T03:12:49.079Z,9.70
2023-02-24T03:15:21.055Z,8.77
2023-02-24T03:17:56.858Z,10.83
2023-02-24T03:20:32.751Z,10.40
2023-02-24T03:23:04.801Z,9.10
2023-02-24T03:25:44.626Z,7.73
2023-02-24T03:28:20.016Z,8.47
2023-02-24T03:30:58.093Z,7.03
2023-02-24T03:33:32.640Z,6.10
2023-02-24T03:36:02.753Z,5.00
2023-02-24T03:38:33.220Z,2.87
2023-02-24T03:41:01.364Z,1.80
2023-02-24T03:43:32.982Z,1.63
2023-02-24T03:46:06.393Z,1.47
2023-02-24T03:48:38.377Z,1.53
2023-02-24T03:51:08.266Z,1.20
2023-02-24T03:53:46.874Z,1.17
2023-02-24T03:56:29.260Z,1.00
2023-02-24T03:59:12.805Z,2.50
2023-02-24T04:01:49.304Z,2.43
2023-02-24T04:04:27.485Z,3.40
2023-02-24T04:07:01.800Z,3.33
2023-02-24T04:09:36.072Z,3.30
2023-02-24T04:12:14.766Z,2.87
2023-02-24T04:14:49.468Z,2.97
2023-02-24T04:17:21.917Z,3.00
2023-02-24T04:19:55.921Z,3.10
2023-02-24T04:22:28.494Z,4.80
2023-02-24T04:25:01.111Z,5.40
2023-02-24T04:27:29.830Z,6.67
2023-02-24T04:30:01.232Z,7.40
2023-02-24T04:32:31.972Z,6.67
2023-02-24T04:35:06.648Z,7.73
2023-02-24T04:37:39.771Z,7.57
2023-02-24T04:40:12.415Z,8.67
2023-02-24T04:42:46.682Z,7.87
2023-02-24T04:45:16.553Z,8.20
2023-02-24T04:47:49.535Z,8.17
2023-02-24T04:50:24.083Z,7.67
2023-02-24T04:52:55.644Z,7.70
2023-02-24T04:55:26.577Z,7.70
2023-02-24T04:57:54.907Z,7.93
2023-02-24T05:00:26.732Z,7.37
2023-02-24T05:02:56.952Z,7.70
2023-02-24T05:05:27.759Z,8.33
2023-02-24T05:08:03.009Z,8.60
2023-02-24T05:10:35.971Z,7.77
2023-02-24T05:13:06.795Z,7.90
2023-02-24T05:15:35.441Z,7.60
2023-02-24T05:18:07.793Z,9.23
2023-02-24T05:20:57.447Z,8.57
2023-02-24T05:23:28.052Z,8.00
2023-02-24T05:25:58.045Z,7.10
2023-02-24T05:28:26.525Z,8.00
2023-02-24T05:30:56.087Z,7.87
2023-02-24T05:33:24.265Z,7.70
2023-02-24T05:35:52.411Z,7.93
2023-02-24T05:38:20.944Z,7.83
2023-02-24T05:40:50.488Z,8.13
2023-02-24T05:43:19.285Z,7.13
2023-02-24T05:45:47.731Z,8.10
2023-02-24T05:48:16.235Z,7.43
2023-02-24T05:50:52.377Z,6.87
2023-02-24T05:53:20.465Z,7.20
2023-02-24T05:55:50.009Z,6.37
2023-02-24T05:58:18.144Z,5.97
2023-02-24T06:00:46.660Z,6.13
2023-02-24T06:03:17.709Z,5.63
2023-02-24T06:05:54.282Z,5.50
2023-02-24T06:08:24.396Z,5.27
2023-02-24T06:10:54.347Z,5.23
2023-02-24T06:13:22.413Z,4.90
2023-02-24T06:15:57.287Z,5.80
2023-02-24T06:18:25.351Z,6.70
2023-02-24T06:20:53.955Z,6.70
2023-02-24T06:23:22.159Z,6.00
2023-02-24T06:25:50.433Z,6.47
2023-02-24T06:28:20.863Z,6.63
2023-02-24T06:30:52.184Z,5.70
2023-02-24T06:33:22.424Z,5.90
2023-02-24T06:35:50.437Z,7.03
2023-02-24T06:38:18.497Z,6.60
2023-02-24T06:40:47.568Z,7.60
2023-02-24T06:43:15.596Z,7.70
2023-02-24T06:45:45.459Z,7.20
2023-02-24T06:48:13.709Z,7.70
2023-02-24T06:50:42.277Z,6.73
2023-02-24T06:53:16.976Z,6.20
2023-02-24T06:55:46.595Z,6.07
2023-02-24T06:58:18.134Z,6.17
2023-02-24T07:00:56.893Z,6.63
2023-02-24T07:03:39.172Z,8.50
2023-02-24T07:06:24.500Z,8.90
2023-02-24T07:08:53.218Z,8.57
2023-02-24T07:11:22.430Z,7.43
2023-02-24T07:13:51.141Z,7.93
2023-02-24T07:16:25.330Z,7.40
2023-02-24T07:18:56.760Z,7.10
2023-02-24T07:21:26.595Z,8.37
2023-02-24T07:23:58.806Z,7.53
2023-02-24T07:26:30.426Z,7.57
2023-02-24T07:28:58.587Z,7.50
2023-02-24T07:31:28.234Z,7.90
2023-02-24T07:33:57.733Z,8.00
2023-02-24T07:36:30.373Z,7.00
2023-02-24T07:39:00.474Z,7.70
2023-02-24T07:41:30.495Z,7.63
2023-02-24T07:44:03.304Z,7.37
2023-02-24T07:46:33.566Z,7.47
2023-02-24T07:49:03.407Z,7.30
2023-02-24T07:51:32.102Z,7.03
2023-02-24T07:54:02.822Z,7.47
2023-02-24T07:56:32.974Z,7.43
2023-02-24T07:59:02.893Z,7.67
2023-02-24T08:01:39.049Z,8.27
2023-02-24T08:04:09.295Z,8.10
2023-02-24T08:06:46.131Z,8.93
2023-02-24T08:09:20.734Z,9.30
2023-02-24T08:11:52.418Z,8.73
2023-02-24T08:14:23.674Z,9.07
2023-02-24T08:16:59.491Z,8.67
2023-02-24T08:19:33.215Z,8.47
2023-02-24T08:22:19.612Z,8.00
2023-02-24T08:24:50.264Z,8.70
2023-02-24T08:27:20.317Z,8.73
2023-02-24T08:30:00.244Z,7.57
2023-02-24T08:32:35.912Z,8.20
2023-02-24T08:35:14.583Z,7.83
2023-02-24T08:37:47.259Z,8.33
2023-02-24T08:40:38.264Z,8.37
2023-02-24T08:43:25.795Z,8.77
2023-02-24T08:45:56.812Z,8.17
2023-02-24T08:48:32.437Z,8.50
2023-02-24T08:51:04.717Z,8.37
2023-02-24T08:53:33.123Z,8.03
2023-02-24T08:56:09.660Z,7.50
2023-02-24T08:58:41.131Z,7.40
2023-02-24T09:01:19.051Z,6.60
2023-02-24T09:03:50.417Z,6.30
2023-02-24T09:06:25.507Z,6.80
2023-02-24T09:09:13.025Z,6.93
2023-02-24T09:11:44.257Z,6.57
2023-02-24T09:14:32.206Z,6.73
2023-02-24T09:17:04.210Z,6.10
2023-02-24T09:20:01.595Z,6.70
2023-02-24T09:22:57.344Z,6.07
2023-02-24T09:25:40.703Z,6.07
2023-02-24T09:28:17.455Z,6.27
2023-02-24T09:30:57.564Z,5.83
2023-02-24T09:33:27.506Z,6.23
2023-02-24T09:36:10.004Z,6.00
2023-02-24T09:38:57.696Z,6.37
2023-02-24T09:41:53.786Z,7.53
2023-02-24T09:44:28.314Z,5.80
2023-02-24T09:47:08.938Z,6.20
2023-02-24T09:49:47.887Z,6.13
2023-02-24T09:52:19.768Z,6.90
2023-02-24T09:55:07.533Z,6.73
2023-02-24T09:58:04.701Z,7.13
2023-02-24T10:00:38.572Z,6.77
2023-02-24T10:03:20.597Z,7.90
2023-02-24T10:05:59.132Z,8.77
2023-02-24T10:08:38.390Z,7.37
2023-02-24T10:11:09.957Z,6.73
2023-02-24T10:13:42.674Z,7.10
2023-02-24T10:16:15.639Z,6.53
2023-02-24T10:18:48.650Z,5.50
2023-02-24T10:21:34.929Z,6.00
2023-02-24T10:24:16.167Z,5.80
2023-02-24T10:26:59.992Z,4.93
2023-02-24T10:29:43.366Z,4.43
2023-02-24T10:32:24.103Z,3.90
2023-02-24T10:34:52.970Z,4.40
2023-02-24T10:37:28.701Z,4.27
2023-02-24T10:40:00.461Z,3.97
2023-02-24T10:42:32.013Z,4.00
2023-02-24T10:45:18.571Z,5.00
2023-02-24T10:47:56.868Z,4.50
2023-02-24T10:50:32.012Z,4.90
2023-02-24T10:53:26.084Z,4.47
2023-02-24T10:56:15.155Z,3.97
2023-02-24T10:58:56.873Z,3.53
2023-02-24T11:01:45.391Z,2.80
2023-02-24T11:04:33.507Z,3.37
2023-02-24T11:07:09.901Z,3.80
2023-02-24T11:09:44.189Z,3.50
2023-02-24T11:12:38.569Z,3.50
2023-02-24T11:15:35.857Z,2.87
2023-02-24T11:18:04.494Z,3.30
2023-02-24T11:20:48.604Z,3.70
2023-02-24T11:23:21.610Z,3.73
2023-02-24T11:25:53.547Z,4.40
2023-02-24T11:28:39.321Z,3.70
2023-02-24T11:31:22.547Z,4.40
2023-02-24T11:34:02.004Z,3.43
2023-02-24T11:36:43.455Z,3.43
2023-02-24T11:39:42.911Z,3.77
2023-02-24T11:42:16.287Z,3.33
2023-02-24T11:44:53.581Z,2.70
2023-02-24T11:47:28.608Z,2.97
2023-02-24T11:50:17.839Z,2.90
2023-02-24T11:52:50.338Z,2.70
2023-02-24T11:55:28.310Z,2.97
2023-02-24T11:58:01.537Z,3.10
2023-02-24T12:00:34.421Z,3.67
2023-02-24T12:03:09.608Z,3.03
2023-02-24T12:05:42.206Z,4.27
2023-02-24T12:08:20.137Z,4.17
2023-02-24T12:10:55.185Z,3.90
2023-02-24T12:13:33.984Z,4.40
2023-02-24T12:16:08.401Z,4.47
2023-02-24T12:18:41.006Z,3.93
2023-02-24T12:21:14.821Z,3.70
2023-02-24T12:23:46.076Z,3.50
2023-02-24T12:26:23.388Z,2.60
2023-02-24T12:29:19.005Z,2.67
2023-02-24T12:31:57.299Z,2.37
2023-02-24T12:34:39.793Z,2.57
2023-02-24T12:37:36.009Z,2.30
2023-02-24T12:40:16.664Z,2.00
2023-02-24T12:42:52.671Z,1.97
2023-02-24T12:45:28.879Z,1.97
2023-02-24T12:48:08.254Z,1.53
2023-02-24T12:50:49.994Z,1.70
2023-02-24T12:53:24.621Z,1.47
2023-02-24T12:56:04.119Z,1.50
2023-02-24T12:58:34.510Z,1.77
2023-02-24T13:01:13.073Z,1.87
2023-02-24T13:03:57.753Z,1.40
2023-02-24T13:06:35.748Z,1.70
2023-02-24T13:09:13.087Z,1.80
2023-02-24T13:11:51.103Z,1.70
2023-02-24T13:14:27.496Z,1.67
2023-02-24T13:17:06.274Z,1.80
2023-02-24T13:19:36.976Z,1.30
2023-02-24T13:22:08.760Z,1.60
2023-02-24T13:24:37.582Z,1.53
2023-02-24T13:27:07.806Z,1.27
2023-02-24T13:29:45.727Z,1.27
2023-02-24T13:32:31.712Z,1.27
2023-02-24T13:35:03.777Z,1.50
2023-02-24T13:37:35.683Z,1.23
2023-02-24T13:40:22.968Z,1.50
2023-02-24T13:43:00.186Z,1.20
2023-02-24T13:45:30.090Z,1.20
2023-02-24T13:48:23.860Z,1.07
2023-02-24T13:51:10.696Z,1.30
2023-02-24T13:54:00.664Z,1.40
2023-02-24T13:56:41.503Z,1.30
2023-02-24T13:59:21.018Z,1.33
2023-02-24T14:01:52.343Z,1.20
2023-02-24T14:04:24.555Z,1.20
2023-02-24T14:06:56.780Z,1.27
2023-02-24T14:09:28.870Z,1.20
2023-02-24T14:12:01.557Z,1.57
2023-02-24T14:14:31.556Z,1.20
2023-02-24T14:16:59.730Z,1.20
2023-02-24T14:19:28.237Z,1.30
2023-02-24T14:21:59.499Z,1.00
2023-02-24T14:24:29.027Z,1.00
2023-02-24T14:26:59.778Z,1.17
2023-02-24T14:29:31.985Z,1.33
2023-02-24T14:32:01.229Z,1.40
2023-02-24T14:34:34.009Z,1.00
2023-02-24T14:37:05.930Z,1.00
2023-02-24T14:39:35.314Z,1.00
2023-02-24T14:42:14.348Z,1.00
2023-02-24T14:44:44.028Z,1.17
2023-02-24T14:47:15.432Z,1.10
2023-02-24T14:49:52.632Z,1.60
2023-02-24T14:52:29.110Z,1.23
2023-02-24T14:55:00.943Z,1.13
2023-02-24T14:57:32.963Z,1.07
2023-02-24T15:00:10.844Z,1.00
2023-02-24T15:02:44.621Z,1.00
2023-02-24T15:05:13.250Z,1.13
2023-02-24T15:07:46.843Z,0.90
2023-02-24T15:10:22.277Z,0.80
2023-02-24T15:12:55.141Z,1.00
2023-02-24T15:15:27.025Z,0.80
2023-02-24T15:17:59.054Z,0.93
2023-02-24T15:20:30.234Z,0.90
2023-02-24T15:23:00.557Z,1.17
2023-02-24T15:25:42.483Z,1.20
2023-02-24T15:28:25.537Z,0.70
2023-02-24T15:31:02.415Z,0.80
2023-02-24T15:33:36.384Z,1.13
2023-02-24T15:36:11.283Z,0.97
2023-02-24T15:38:44.062Z,0.70
2023-02-24T15:41:13.618Z,1.17
2023-02-24T15:43:48.497Z,1.10
2023-02-24T15:46:23.264Z,1.07
2023-02-24T15:48:53.183Z,0.90
2023-02-24T15:51:33.247Z,0.83
2023-02-24T15:54:04.717Z,0.90
2023-02-24T15:56:34.852Z,0.77
2023-02-24T15:59:03.341Z,0.67
2023-02-24T16:01:32.651Z,0.90
2023-02-24T16:04:01.456Z,0.70
2023-02-24T16:06:30.267Z,0.90
2023-02-24T16:08:59.351Z,0.90
2023-02-24T16:11:35.247Z,0.70
2023-02-24T16:14:03.349Z,0.70
2023-02-24T16:16:33.392Z,0.90
2023-02-24T16:19:01.631Z,0.90
2023-02-24T16:21:30.270Z,0.73
2023-02-24T16:23:58.324Z,1.00
2023-02-24T16:26:26.694Z,0.70
2023-02-24T16:28:58.102Z,1.27
2023-02-24T16:31:28.268Z,1.00
2023-02-24T16:33:57.471Z,0.80
2023-02-24T16:36:28.299Z,0.80
2023-02-24T16:38:56.940Z,0.90
2023-02-24T16:41:27.184Z,0.90
2023-02-24T16:43:56.587Z,0.90
2023-02-24T16:46:25.090Z,1.00
2023-02-24T16:48:54.457Z,1.20
2023-02-24T16:51:24.854Z,1.23
2023-02-24T16:53:53.157Z,1.20
2023-02-24T16:56:21.707Z,1.10
2023-02-24T16:58:50.688Z,1.20
2023-02-24T17:01:22.800Z,1.27
2023-02-24T17:03:53.924Z,1.10
2023-02-24T17:06:23.712Z,1.40
2023-02-24T17:08:52.331Z,1.37
2023-02-24T17:11:22.469Z,1.20
2023-02-24T17:13:50.555Z,1.23
2023-02-24T17:16:18.710Z,1.23
2023-02-24T17:18:48.172Z,3.20
2023-02-24T17:21:18.058Z,7.70
2023-02-24T17:23:46.204Z,3.50
2023-02-24T17:26:16.170Z,25.40
2023-02-24T17:28:44.487Z,15.63
2023-02-24T17:31:12.764Z,9.20
2023-02-24T17:33:41.650Z,5.57
2023-02-24T17:36:13.649Z,3.20
2023-02-24T17:38:41.673Z,3.60
2023-02-24T17:41:10.624Z,3.07
2023-02-24T17:43:38.850Z,5.70
2023-02-24T17:46:07.549Z,4.70
2023-02-24T17:48:36.332Z,6.73
2023-02-24T17:51:04.483Z,5.20
2023-02-24T17:53:33.941Z,4.53
2023-02-24T17:56:05.173Z,6.13
2023-02-24T17:58:34.183Z,54.00
2023-02-24T18:01:03.139Z,142.97
2023-02-24T18:03:32.041Z,121.27
2023-02-24T18:06:01.234Z,63.30
2023-02-24T18:08:30.563Z,42.13
2023-02-24T18:11:00.960Z,16.20
2023-02-24T18:13:29.436Z,16.13
2023-02-24T18:15:57.881Z,10.30
2023-02-24T18:18:30.410Z,11.07
2023-02-24T18:21:02.853Z,9.90
2023-02-24T18:23:31.096Z,10.80
2023-02-24T18:26:03.793Z,11.67
2023-02-24T18:28:35.396Z,11.97
2023-02-24T18:31:10.438Z,13.57
2023-02-24T18:33:38.980Z,11.83
2023-02-24T18:36:08.341Z,10.90
2023-02-24T18:38:36.685Z,8.90
2023-02-24T18:41:08.615Z,8.60
2023-02-24T18:43:37.527Z,9.13
2023-02-24T18:46:07.598Z,8.40
2023-02-24T18:48:36.321Z,8.00
2023-02-24T18:51:08.113Z,9.20
2023-02-24T18:53:37.015Z,8.40
2023-02-24T18:56:08.537Z,9.00
2023-02-24T18:58:38.648Z,10.27
2023-02-24T19:01:12.489Z,11.03
2023-02-24T19:03:41.170Z,25.47
2023-02-24T19:06:12.941Z,18.63
2023-02-24T19:08:42.846Z,42.20
2023-02-24T19:11:15.498Z,36.20
2023-02-24T19:13:44.081Z,191.70
2023-02-24T19:16:12.707Z,224.33
2023-02-24T19:18:41.022Z,196.43
2023-02-24T19:21:10.573Z,112.00
2023-02-24T19:23:39.396Z,286.30
2023-02-24T19:26:08.241Z,228.07
2023-02-24T19:28:37.624Z,76.80
2023-02-24T19:31:06.109Z,25.30
2023-02-24T19:33:34.192Z,107.20
2023-02-24T19:36:02.324Z,83.87
2023-02-24T19:38:30.465Z,40.67
2023-02-24T19:40:59.452Z,30.60
2023-02-24T19:43:27.815Z,57.00
2023-02-24T19:45:57.557Z,40.23
2023-02-24T19:48:25.720Z,20.00
2023-02-24T19:50:53.695Z,42.73
2023-02-24T19:53:21.744Z,37.70
2023-02-24T19:55:50.725Z,21.20
2023-02-24T19:58:18.756Z,35.43
2023-02-24T20:00:48.163Z,30.60
2023-02-24T20:03:20.895Z,30.13
2023-02-24T20:05:49.012Z,22.73
2023-02-24T20:08:17.293Z,58.63
2023-02-24T20:10:45.302Z,21.23
2023-02-24T20:13:14.371Z,50.33
2023-02-24T20:15:42.544Z,34.37
2023-02-24T20:18:10.851Z,34.27
2023-02-24T20:20:40.314Z,20.60
2023-02-24T20:23:08.657Z,14.40
2023-02-24T20:25:36.783Z,13.60
2023-02-24T20:28:04.907Z,13.17
2023-02-24T20:30:33.033Z,13.50
2023-02-24T20:33:01.141Z,13.33
2023-02-24T20:35:29.329Z,13.13
2023-02-24T20:37:58.926Z,13.10
2023-02-24T20:40:27.184Z,13.60
2023-02-24T20:42:55.251Z,13.07
2023-02-24T20:45:23.333Z,14.27
2023-02-24T20:47:51.384Z,12.80
2023-02-24T20:50:22.668Z,14.10
2023-02-24T20:52:50.809Z,13.13
2023-02-24T20:55:20.539Z,13.97
2023-02-24T20:57:49.138Z,13.40
2023-02-24T21:00:18.171Z,14.47
2023-02-24T21:02:49.389Z,14.60
2023-02-24T21:05:20.721Z,14.10
2023-02-24T21:07:50.070Z,14.63
2023-02-24T21:10:22.565Z,15.43
2023-02-24T21:12:50.577Z,14.13
2023-02-24T21:15:18.960Z,13.77
2023-02-24T21:17:47.072Z,13.70
2023-02-24T21:20:15.771Z,14.60
2023-02-24T21:22:43.820Z,13.43
2023-02-24T21:25:12.219Z,13.33
2023-02-24T21:27:41.644Z,12.80
2023-02-24T21:30:11.018Z,11.90
2023-02-24T21:32:39.210Z,12.07
2023-02-24T21:35:07.546Z,12.37
2023-02-24T21:37:41.736Z,12.33
2023-02-24T21:40:12.294Z,11.43
2023-02-24T21:42:44.658Z,11.50
2023-02-24T21:45:14.005Z,11.90
2023-02-24T21:47:44.217Z,12.47
2023-02-24T21:50:16.065Z,13.10
2023-02-24T21:52:47.812Z,13.63
2023-02-24T21:55:17.243Z,13.33
2023-02-24T21:57:47.984Z,15.20
2023-02-24T22:00:20.837Z,15.50
2023-02-24T22:02:50.945Z,14.90
2023-02-24T22:05:20.415Z,14.17
2023-02-24T22:07:49.910Z,13.97
2023-02-24T22:10:20.464Z,13.70
2023-02-24T22:12:50.692Z,12.87
2023-02-24T22:15:18.942Z,13.00
2023-02-24T22:17:47.049Z,13.37
2023-02-24T22:20:15.770Z,12.63
2023-02-24T22:22:44.244Z,12.20
2023-02-24T22:25:12.357Z,12.90
2023-02-24T22:27:40.795Z,13.43
2023-02-24T22:30:19.810Z,13.03
2023-02-24T22:32:48.204Z,12.10
2023-02-24T22:35:16.411Z,11.93
2023-02-24T22:37:44.512Z,12.27
2023-02-24T22:40:13.411Z,11.73
2023-02-24T22:42:41.737Z,11.87
2023-02-24T22:45:10.988Z,11.60
2023-02-24T22:47:40.509Z,11.53
2023-02-24T22:50:10.130Z,12.07
2023-02-24T22:52:38.445Z,12.30
2023-02-24T22:55:07.111Z,13.27
2023-02-24T22:57:35.351Z,12.63
2023-02-24T23:00:09.579Z,12.30
2023-02-24T23:02:38.459Z,14.20
2023-02-24T23:05:08.808Z,12.83
2023-02-24T23:07:37.379Z,14.07
2023-02-24T23:10:06.794Z,13.63
2023-02-24T23:12:35.829Z,12.20
2023-02-24T23:15:04.030Z,12.77
2023-02-24T23:17:35.042Z,12.00
2023-02-24T23:20:12.768Z,12.87
2023-02-24T23:22:43.164Z,12.67
2023-02-24T23:25:12.348Z,12.50
2023-02-24T23:27:40.713Z,11.77
2023-02-24T23:30:12.377Z,11.20
2023-02-24T23:32:42.376Z,12.23
2023-02-24T23:35:11.526Z,13.03
2023-02-24T23:37:44.302Z,12.33
2023-02-24T23:40:14.804Z,13.07
2023-02-24T23:42:46.410Z,12.90
2023-02-24T23:45:14.375Z,11.90
2023-02-24T23:47:43.247Z,11.10
2023-02-24T23:50:13.648Z,11.70
2023-02-24T23:52:44.209Z,11.90
2023-02-24T23:55:12.750Z,10.80
2023-02-24T23:57:41.160Z,11.30
